La Palma > ESTACION METEOROLÓGICA El Charco - Fuencaliente

DATOS ACTUALES Online

Ultima actulizacion 3 minutos

22.6 ºC

Temperatura

44

Humedad (%)

1016.1

Presión (mb)

0

Precipitación (mm)

1.62 E

Viento (Km/h)

DATOS DIARIOS

Temperatura últimas 24 horas (ºC)

Humedad últimas 24 horas (%)

Presión atmosférica últimas 24 horas (mb)

Precipitaciones últimas 23 horas (mm)

Viento últimas 24 horas (Km/h)

Hora Temperatura (°C) ºC Precipitación (mm) mm Presión (mb) mb Humedad (%) % Viento (Km/h) km/h
15 - 23:00 21.1 0.6 1017 70 3.06 NW
16 - 00:00 21.1 0 1017 60 1.62 NE
16 - 01:00 20.6 0 1017 60 0 N
16 - 02:00 20.7 0 1017 56 1.62 N
16 - 03:00 20.7 0 1016 64 0 N
16 - 04:00 20.8 0 1016 56 1.62 NE
16 - 05:00 21.1 0 1016 53 4.68 NE
16 - 06:00 19.1 0 1016 62 0 NE
16 - 07:00 22.2 0 1016 49 1.62 NE
16 - 08:00 22.2 0 1016 48 0 SW
16 - 09:00 23.3 0 1016 51 0 SW
16 - 10:00 20.3 0 1017 92 3.06 SW
16 - 11:00 22 0 1017 86 4.68 W
16 - 12:00 23.5 0 1017 79 3.06 NW
16 - 13:00 23.3 0 1016 80 1.62 SW
16 - 14:00 25.4 0 1016 74 1.62 SW
16 - 15:00 26.5 0 1015 69 3.06 SW
16 - 16:00 27.9 0 1015 42 3.06 SW
16 - 17:00 24.9 0 1015 75 10.98 W
16 - 18:00 23.2 0 1015 83 3.06 SW
16 - 19:00 24.8 0 1014 70 3.06 NW
16 - 20:00 24 0 1015 64 3.06 NW
16 - 21:00 20.7 0 1016 82 0 NW
16 - 22:00 18.4 0 1016 94 0 S
16 - 23:00 22.6 0 1016 44 1.62 E
Apalmet utiliza cookies propias y de terceros para mejorar la usabilidad y la experiencia web. Política de cookies.